MET'MAP v2.0
soon released !

Expected late october,
this new version will be
more efficient, smarter,
and hosted on a brand new
server x3 powerfull...
...and still free !


Not compatible ?
Try the mobile version !

LOG IN : | Subscribe | Disclaimer | Who is Orbifly ? |
ICAO code :

TAF - ETIC Grafenwohr Army Air Field - 05 Jun 2020 09:37 UTC
Data Sources :     NOAA   


- Airport Elevation : 1363 ft
- No reported NOTAMs.


ETIC - Grafenwohr Army Air Field

Latest METAR recorded : 2015/08/11 07:58 ETIC 110758Z AUTO M 9999 CLR 24/17 A3000 RMK AO2 SLP140 T02430166 $
TAF AMD TAF ETIC
Valid from the 05 at 02:00 until the 06 at 08:00 UTC


050242Z 0502/0608 VRB06KT 9999 BKN020 QNH2937INS
TEMPO 0502/0505 BKN012
BECMG 0505/0506 28012KT 9999 SCT015 BKN025 QNH2946INS
BECMG 0510/0511 27012G18KT 8000 -SHRA SCT010 OVC030 QNH2945INS
BECMG 0519/0520 25009KT 9999 NSW BKN015 OVC030 QNH2946INS
BECMG 0604/0605 20006KT 9000 -SHRA BKN012 OVC030 QNH2946INS TX15/0513Z TN11/0504Z

Source NOAA


MET'MAP, your aeronautical weather chart ! - Copyright ORBIFLY December 2007

Programming & Development : Alexandra Zaïnal
Co-Developer : Marc-Olivier Méhu
Technical & hardware support : Manuel Goepfert
Concept & Financing : Baudouin d'Aumeries